sensor_id;sensor_type;location;lat;lon;timestamp;temperature;humidity
28845;DHT22;15976;47.938;7.758;2023-11-22T00:01:53;10.20;89.30
28845;DHT22;15976;47.938;7.758;2023-11-22T00:04:20;10.20;89.30
28845;DHT22;15976;47.938;7.758;2023-11-22T00:06:48;10.20;89.30
28845;DHT22;15976;47.938;7.758;2023-11-22T00:09:15;10.20;89.10
28845;DHT22;15976;47.938;7.758;2023-11-22T00:11:42;10.20;89.10
28845;DHT22;15976;47.938;7.758;2023-11-22T00:14:09;10.20;89.00
28845;DHT22;15976;47.938;7.758;2023-11-22T00:16:37;10.10;88.90
28845;DHT22;15976;47.938;7.758;2023-11-22T00:19:05;10.10;88.90
28845;DHT22;15976;47.938;7.758;2023-11-22T00:21:33;10.10;89.10
28845;DHT22;15976;47.938;7.758;2023-11-22T00:24:00;10.10;89.00
28845;DHT22;15976;47.938;7.758;2023-11-22T00:26:27;10.10;89.20
28845;DHT22;15976;47.938;7.758;2023-11-22T00:28:59;10.10;89.20
28845;DHT22;15976;47.938;7.758;2023-11-22T00:31:27;10.10;89.30
28845;DHT22;15976;47.938;7.758;2023-11-22T00:33:54;10.10;89.30
28845;DHT22;15976;47.938;7.758;2023-11-22T00:36:22;10.10;89.20
28845;DHT22;15976;47.938;7.758;2023-11-22T00:38:49;10.10;89.30
28845;DHT22;15976;47.938;7.758;2023-11-22T00:41:16;10.10;89.20
28845;DHT22;15976;47.938;7.758;2023-11-22T00:43:43;10.10;89.10
28845;DHT22;15976;47.938;7.758;2023-11-22T00:46:10;10.10;89.00
28845;DHT22;15976;47.938;7.758;2023-11-22T00:48:37;10.10;88.90
28845;DHT22;15976;47.938;7.758;2023-11-22T00:51:04;10.10;89.00
28845;DHT22;15976;47.938;7.758;2023-11-22T00:53:35;10.10;89.10
28845;DHT22;15976;47.938;7.758;2023-11-22T00:56:05;10.10;89.10
28845;DHT22;15976;47.938;7.758;2023-11-22T00:58:33;10.10;89.00
28845;DHT22;15976;47.938;7.758;2023-11-22T01:01:00;10.10;89.00
28845;DHT22;15976;47.938;7.758;2023-11-22T01:03:27;10.10;89.10
28845;DHT22;15976;47.938;7.758;2023-11-22T01:05:54;10.10;89.10
28845;DHT22;15976;47.938;7.758;2023-11-22T01:08:22;10.10;89.00
28845;DHT22;15976;47.938;7.758;2023-11-22T01:10:50;10.10;89.00
28845;DHT22;15976;47.938;7.758;2023-11-22T01:13:17;10.10;88.80
28845;DHT22;15976;47.938;7.758;2023-11-22T01:15:44;10.10;88.90
28845;DHT22;15976;47.938;7.758;2023-11-22T01:18:11;10.10;88.80
28845;DHT22;15976;47.938;7.758;2023-11-22T01:20:39;10.10;88.70
28845;DHT22;15976;47.938;7.758;2023-11-22T01:23:06;10.00;88.50
28845;DHT22;15976;47.938;7.758;2023-11-22T01:25:33;10.00;88.70
28845;DHT22;15976;47.938;7.758;2023-11-22T01:28:00;10.00;88.90
28845;DHT22;15976;47.938;7.758;2023-11-22T01:30:27;10.00;88.80
28845;DHT22;15976;47.938;7.758;2023-11-22T01:32:55;10.00;88.80
28845;DHT22;15976;47.938;7.758;2023-11-22T01:35:22;10.00;88.70
28845;DHT22;15976;47.938;7.758;2023-11-22T01:37:50;10.00;88.60
28845;DHT22;15976;47.938;7.758;2023-11-22T01:40:17;10.00;88.70
28845;DHT22;15976;47.938;7.758;2023-11-22T01:42:46;9.90;88.70
28845;DHT22;15976;47.938;7.758;2023-11-22T01:45:14;10.00;88.80
28845;DHT22;15976;47.938;7.758;2023-11-22T01:47:42;10.00;88.80
28845;DHT22;15976;47.938;7.758;2023-11-22T01:50:10;10.00;88.80
28845;DHT22;15976;47.938;7.758;2023-11-22T01:52:38;10.00;88.80
28845;DHT22;15976;47.938;7.758;2023-11-22T01:55:06;10.00;88.80
28845;DHT22;15976;47.938;7.758;2023-11-22T01:57:36;10.00;88.80
28845;DHT22;15976;47.938;7.758;2023-11-22T02:00:05;10.00;88.90
28845;DHT22;15976;47.938;7.758;2023-11-22T02:02:41;10.00;88.90
28845;DHT22;15976;47.938;7.758;2023-11-22T02:05:09;10.00;89.00
28845;DHT22;15976;47.938;7.758;2023-11-22T02:07:37;10.00;88.80
28845;DHT22;15976;47.938;7.758;2023-11-22T02:10:07;10.00;88.90
28845;DHT22;15976;47.938;7.758;2023-11-22T02:12:34;10.00;89.00
28845;DHT22;15976;47.938;7.758;2023-11-22T02:15:03;10.00;89.60
28845;DHT22;15976;47.938;7.758;2023-11-22T02:17:30;9.90;88.80
28845;DHT22;15976;47.938;7.758;2023-11-22T02:19:57;10.00;89.00
28845;DHT22;15976;47.938;7.758;2023-11-22T02:22:24;9.90;88.80
28845;DHT22;15976;47.938;7.758;2023-11-22T02:24:52;9.90;88.80
28845;DHT22;15976;47.938;7.758;2023-11-22T02:27:19;10.00;88.80
28845;DHT22;15976;47.938;7.758;2023-11-22T02:29:46;10.00;88.90
28845;DHT22;15976;47.938;7.758;2023-11-22T02:32:13;10.00;88.90
28845;DHT22;15976;47.938;7.758;2023-11-22T02:34:40;10.00;88.80
28845;DHT22;15976;47.938;7.758;2023-11-22T02:37:07;10.00;88.80
28845;DHT22;15976;47.938;7.758;2023-11-22T02:42:43;10.00;88.80
28845;DHT22;15976;47.938;7.758;2023-11-22T02:45:10;10.00;88.90
28845;DHT22;15976;47.938;7.758;2023-11-22T02:47:37;10.00;88.80
28845;DHT22;15976;47.938;7.758;2023-11-22T02:50:04;10.00;88.40
28845;DHT22;15976;47.938;7.758;2023-11-22T02:52:32;10.00;88.30
28845;DHT22;15976;47.938;7.758;2023-11-22T02:54:59;10.00;88.40
28845;DHT22;15976;47.938;7.758;2023-11-22T02:57:27;10.00;88.40
28845;DHT22;15976;47.938;7.758;2023-11-22T02:59:54;9.90;88.00
28845;DHT22;15976;47.938;7.758;2023-11-22T03:02:21;9.90;87.90
28845;DHT22;15976;47.938;7.758;2023-11-22T03:04:48;9.80;87.60
28845;DHT22;15976;47.938;7.758;2023-11-22T03:07:15;9.70;87.50
28845;DHT22;15976;47.938;7.758;2023-11-22T03:09:42;9.60;87.50
28845;DHT22;15976;47.938;7.758;2023-11-22T03:12:11;9.50;87.40
28845;DHT22;15976;47.938;7.758;2023-11-22T03:14:39;9.40;87.50
28845;DHT22;15976;47.938;7.758;2023-11-22T03:17:08;9.30;87.60
28845;DHT22;15976;47.938;7.758;2023-11-22T03:19:35;9.30;87.60
28845;DHT22;15976;47.938;7.758;2023-11-22T03:22:02;9.20;87.90
28845;DHT22;15976;47.938;7.758;2023-11-22T03:24:29;9.20;88.00
28845;DHT22;15976;47.938;7.758;2023-11-22T03:26:57;9.10;87.90
28845;DHT22;15976;47.938;7.758;2023-11-22T03:29:25;9.20;87.90
28845;DHT22;15976;47.938;7.758;2023-11-22T03:31:53;9.10;87.50
28845;DHT22;15976;47.938;7.758;2023-11-22T03:34:21;9.10;87.50
28845;DHT22;15976;47.938;7.758;2023-11-22T03:36:48;9.00;87.00
28845;DHT22;15976;47.938;7.758;2023-11-22T03:39:19;8.90;87.00
28845;DHT22;15976;47.938;7.758;2023-11-22T03:41:46;8.90;87.20
28845;DHT22;15976;47.938;7.758;2023-11-22T03:44:16;8.90;87.20
28845;DHT22;15976;47.938;7.758;2023-11-22T03:46:43;8.80;86.80
28845;DHT22;15976;47.938;7.758;2023-11-22T03:49:10;8.80;86.70
28845;DHT22;15976;47.938;7.758;2023-11-22T03:51:38;8.70;86.50
28845;DHT22;15976;47.938;7.758;2023-11-22T03:54:06;8.70;86.50
28845;DHT22;15976;47.938;7.758;2023-11-22T03:56:33;8.60;86.40
28845;DHT22;15976;47.938;7.758;2023-11-22T03:59:01;8.60;86.30
28845;DHT22;15976;47.938;7.758;2023-11-22T04:01:30;8.60;86.20
28845;DHT22;15976;47.938;7.758;2023-11-22T04:03:57;8.60;86.10
28845;DHT22;15976;47.938;7.758;2023-11-22T04:06:25;8.50;86.00
28845;DHT22;15976;47.938;7.758;2023-11-22T04:08:52;8.50;85.80
28845;DHT22;15976;47.938;7.758;2023-11-22T04:11:20;8.40;85.90
28845;DHT22;15976;47.938;7.758;2023-11-22T04:13:48;8.40;85.60
28845;DHT22;15976;47.938;7.758;2023-11-22T04:16:16;8.30;85.50
28845;DHT22;15976;47.938;7.758;2023-11-22T04:18:44;8.30;85.50
28845;DHT22;15976;47.938;7.758;2023-11-22T04:21:11;8.20;85.60
28845;DHT22;15976;47.938;7.758;2023-11-22T04:23:38;8.20;86.40
28845;DHT22;15976;47.938;7.758;2023-11-22T04:26:05;8.20;85.70
28845;DHT22;15976;47.938;7.758;2023-11-22T04:28:34;8.20;85.50
28845;DHT22;15976;47.938;7.758;2023-11-22T04:31:01;8.10;85.50
28845;DHT22;15976;47.938;7.758;2023-11-22T04:33:28;8.10;85.40
28845;DHT22;15976;47.938;7.758;2023-11-22T04:35:55;8.10;85.10
28845;DHT22;15976;47.938;7.758;2023-11-22T04:38:23;8.00;85.10
28845;DHT22;15976;47.938;7.758;2023-11-22T04:40:50;7.90;85.10
28845;DHT22;15976;47.938;7.758;2023-11-22T04:43:17;7.90;85.20
28845;DHT22;15976;47.938;7.758;2023-11-22T04:45:44;7.90;85.20
28845;DHT22;15976;47.938;7.758;2023-11-22T04:48:11;7.80;85.00
28845;DHT22;15976;47.938;7.758;2023-11-22T04:50:38;7.80;84.90
28845;DHT22;15976;47.938;7.758;2023-11-22T04:53:05;7.70;84.80
28845;DHT22;15976;47.938;7.758;2023-11-22T04:55:32;7.70;85.20
28845;DHT22;15976;47.938;7.758;2023-11-22T04:57:59;7.60;85.30
28845;DHT22;15976;47.938;7.758;2023-11-22T05:00:26;7.70;85.40
28845;DHT22;15976;47.938;7.758;2023-11-22T05:02:53;7.70;85.40
28845;DHT22;15976;47.938;7.758;2023-11-22T05:05:22;7.60;85.40
28845;DHT22;15976;47.938;7.758;2023-11-22T05:07:49;7.60;85.40
28845;DHT22;15976;47.938;7.758;2023-11-22T05:10:16;7.60;85.40
28845;DHT22;15976;47.938;7.758;2023-11-22T05:12:43;7.70;85.60
28845;DHT22;15976;47.938;7.758;2023-11-22T05:15:11;7.70;85.50
28845;DHT22;15976;47.938;7.758;2023-11-22T05:17:38;7.60;85.30
28845;DHT22;15976;47.938;7.758;2023-11-22T05:20:06;7.60;85.40
28845;DHT22;15976;47.938;7.758;2023-11-22T05:22:37;7.60;85.30
28845;DHT22;15976;47.938;7.758;2023-11-22T05:25:05;7.60;85.40
28845;DHT22;15976;47.938;7.758;2023-11-22T05:27:33;7.50;85.40
28845;DHT22;15976;47.938;7.758;2023-11-22T05:30:00;7.50;85.50
28845;DHT22;15976;47.938;7.758;2023-11-22T05:32:28;7.50;85.40
28845;DHT22;15976;47.938;7.758;2023-11-22T05:34:57;7.50;85.20
28845;DHT22;15976;47.938;7.758;2023-11-22T05:37:25;7.50;85.30
28845;DHT22;15976;47.938;7.758;2023-11-22T05:39:53;7.50;85.20
28845;DHT22;15976;47.938;7.758;2023-11-22T05:42:20;7.60;85.30
28845;DHT22;15976;47.938;7.758;2023-11-22T05:44:48;7.50;85.00
28845;DHT22;15976;47.938;7.758;2023-11-22T05:47:17;7.60;85.00
28845;DHT22;15976;47.938;7.758;2023-11-22T05:49:45;7.50;84.50
28845;DHT22;15976;47.938;7.758;2023-11-22T05:52:12;7.60;84.60
28845;DHT22;15976;47.938;7.758;2023-11-22T05:54:39;7.50;84.20
28845;DHT22;15976;47.938;7.758;2023-11-22T05:57:06;7.50;84.10
28845;DHT22;15976;47.938;7.758;2023-11-22T05:59:33;7.50;84.10
28845;DHT22;15976;47.938;7.758;2023-11-22T06:02:01;7.50;83.90
28845;DHT22;15976;47.938;7.758;2023-11-22T06:04:28;7.60;83.70
28845;DHT22;15976;47.938;7.758;2023-11-22T06:06:55;7.60;83.30
28845;DHT22;15976;47.938;7.758;2023-11-22T06:09:22;7.50;83.10
28845;DHT22;15976;47.938;7.758;2023-11-22T06:11:49;7.50;82.90
28845;DHT22;15976;47.938;7.758;2023-11-22T06:14:16;7.50;82.80
28845;DHT22;15976;47.938;7.758;2023-11-22T06:16:44;7.50;82.60
28845;DHT22;15976;47.938;7.758;2023-11-22T06:19:11;7.50;82.20
28845;DHT22;15976;47.938;7.758;2023-11-22T06:21:38;7.50;81.90
28845;DHT22;15976;47.938;7.758;2023-11-22T06:24:06;7.40;81.80
28845;DHT22;15976;47.938;7.758;2023-11-22T06:26:35;7.40;81.80
28845;DHT22;15976;47.938;7.758;2023-11-22T06:29:02;7.40;81.60
28845;DHT22;15976;47.938;7.758;2023-11-22T06:31:29;7.40;81.50
28845;DHT22;15976;47.938;7.758;2023-11-22T06:33:56;7.40;81.10
28845;DHT22;15976;47.938;7.758;2023-11-22T06:36:23;7.40;81.10
28845;DHT22;15976;47.938;7.758;2023-11-22T06:38:50;7.40;81.10
28845;DHT22;15976;47.938;7.758;2023-11-22T06:41:17;7.30;80.80
28845;DHT22;15976;47.938;7.758;2023-11-22T06:43:45;7.30;80.80
28845;DHT22;15976;47.938;7.758;2023-11-22T06:46:12;7.30;80.60
28845;DHT22;15976;47.938;7.758;2023-11-22T06:48:45;7.30;80.60
28845;DHT22;15976;47.938;7.758;2023-11-22T06:51:16;7.30;80.60
28845;DHT22;15976;47.938;7.758;2023-11-22T06:53:45;7.30;80.60
28845;DHT22;15976;47.938;7.758;2023-11-22T06:56:13;7.20;80.30
28845;DHT22;15976;47.938;7.758;2023-11-22T06:58:41;7.20;80.20
28845;DHT22;15976;47.938;7.758;2023-11-22T07:01:11;7.20;79.90
28845;DHT22;15976;47.938;7.758;2023-11-22T07:03:42;7.10;80.10
28845;DHT22;15976;47.938;7.758;2023-11-22T07:06:09;7.10;80.30
28845;DHT22;15976;47.938;7.758;2023-11-22T07:08:37;7.10;80.20
28845;DHT22;15976;47.938;7.758;2023-11-22T07:11:04;7.10;80.20
28845;DHT22;15976;47.938;7.758;2023-11-22T07:13:32;7.10;80.20
28845;DHT22;15976;47.938;7.758;2023-11-22T07:16:00;7.10;80.30
28845;DHT22;15976;47.938;7.758;2023-11-22T07:18:27;7.10;80.30
28845;DHT22;15976;47.938;7.758;2023-11-22T07:20:55;7.10;80.10
28845;DHT22;15976;47.938;7.758;2023-11-22T07:23:22;7.10;80.00
28845;DHT22;15976;47.938;7.758;2023-11-22T07:25:55;7.00;80.00
28845;DHT22;15976;47.938;7.758;2023-11-22T07:28:22;7.00;80.10
28845;DHT22;15976;47.938;7.758;2023-11-22T07:30:52;7.00;80.20
28845;DHT22;15976;47.938;7.758;2023-11-22T07:33:19;7.00;80.40
28845;DHT22;15976;47.938;7.758;2023-11-22T07:35:47;7.00;80.10
28845;DHT22;15976;47.938;7.758;2023-11-22T07:38:15;6.90;80.20
28845;DHT22;15976;47.938;7.758;2023-11-22T07:40:44;6.90;80.20
28845;DHT22;15976;47.938;7.758;2023-11-22T07:43:11;6.90;80.40
28845;DHT22;15976;47.938;7.758;2023-11-22T07:45:38;6.80;80.00
28845;DHT22;15976;47.938;7.758;2023-11-22T07:48:06;6.80;80.20
28845;DHT22;15976;47.938;7.758;2023-11-22T07:50:33;6.70;80.10
28845;DHT22;15976;47.938;7.758;2023-11-22T07:53:00;6.70;80.10
28845;DHT22;15976;47.938;7.758;2023-11-22T07:55:31;6.60;80.40
28845;DHT22;15976;47.938;7.758;2023-11-22T07:57:58;6.60;80.40
28845;DHT22;15976;47.938;7.758;2023-11-22T08:00:25;6.60;80.50
28845;DHT22;15976;47.938;7.758;2023-11-22T08:02:52;6.60;80.50
28845;DHT22;15976;47.938;7.758;2023-11-22T08:05:21;6.50;80.40
28845;DHT22;15976;47.938;7.758;2023-11-22T08:07:50;6.50;80.50
28845;DHT22;15976;47.938;7.758;2023-11-22T08:10:17;6.50;80.60
28845;DHT22;15976;47.938;7.758;2023-11-22T08:12:48;6.40;80.70
28845;DHT22;15976;47.938;7.758;2023-11-22T08:15:17;6.40;80.80
28845;DHT22;15976;47.938;7.758;2023-11-22T08:17:47;6.40;80.90
28845;DHT22;15976;47.938;7.758;2023-11-22T08:20:14;6.50;80.80
28845;DHT22;15976;47.938;7.758;2023-11-22T08:22:46;6.50;80.80
28845;DHT22;15976;47.938;7.758;2023-11-22T08:25:14;6.60;80.80
28845;DHT22;15976;47.938;7.758;2023-11-22T08:27:42;6.50;80.90
28845;DHT22;15976;47.938;7.758;2023-11-22T08:30:10;6.50;80.90
28845;DHT22;15976;47.938;7.758;2023-11-22T08:32:43;6.50;81.00
28845;DHT22;15976;47.938;7.758;2023-11-22T08:35:12;6.40;81.10
28845;DHT22;15976;47.938;7.758;2023-11-22T08:37:40;6.40;81.20
28845;DHT22;15976;47.938;7.758;2023-11-22T08:40:10;6.40;81.50
28845;DHT22;15976;47.938;7.758;2023-11-22T08:42:47;6.40;81.50
28845;DHT22;15976;47.938;7.758;2023-11-22T08:45:15;6.40;81.50
28845;DHT22;15976;47.938;7.758;2023-11-22T08:47:42;6.40;81.70
28845;DHT22;15976;47.938;7.758;2023-11-22T08:50:10;6.50;81.80
28845;DHT22;15976;47.938;7.758;2023-11-22T08:52:42;6.50;81.60
28845;DHT22;15976;47.938;7.758;2023-11-22T08:55:12;6.50;81.80
28845;DHT22;15976;47.938;7.758;2023-11-22T08:57:42;6.60;82.00
28845;DHT22;15976;47.938;7.758;2023-11-22T09:00:09;6.60;81.90
28845;DHT22;15976;47.938;7.758;2023-11-22T09:02:38;6.60;82.00
28845;DHT22;15976;47.938;7.758;2023-11-22T09:05:07;6.60;82.10
28845;DHT22;15976;47.938;7.758;2023-11-22T09:07:40;6.60;81.70
28845;DHT22;15976;47.938;7.758;2023-11-22T09:10:08;6.70;81.90
28845;DHT22;15976;47.938;7.758;2023-11-22T09:12:38;6.70;81.90
28845;DHT22;15976;47.938;7.758;2023-11-22T09:15:12;6.80;81.80
28845;DHT22;15976;47.938;7.758;2023-11-22T09:17:43;6.80;81.80
28845;DHT22;15976;47.938;7.758;2023-11-22T09:20:15;6.80;81.80
28845;DHT22;15976;47.938;7.758;2023-11-22T09:22:44;6.90;81.80
28845;DHT22;15976;47.938;7.758;2023-11-22T09:25:16;6.90;81.40
28845;DHT22;15976;47.938;7.758;2023-11-22T09:27:43;6.80;81.20
28845;DHT22;15976;47.938;7.758;2023-11-22T09:30:15;6.80;81.30
28845;DHT22;15976;47.938;7.758;2023-11-22T09:32:46;6.80;81.40
28845;DHT22;15976;47.938;7.758;2023-11-22T09:35:14;6.90;81.20
28845;DHT22;15976;47.938;7.758;2023-11-22T09:37:42;6.90;81.30
28845;DHT22;15976;47.938;7.758;2023-11-22T09:40:10;6.90;81.50
28845;DHT22;15976;47.938;7.758;2023-11-22T09:42:38;7.00;81.50
28845;DHT22;15976;47.938;7.758;2023-11-22T09:45:05;7.00;81.40
28845;DHT22;15976;47.938;7.758;2023-11-22T09:47:32;7.10;81.30
28845;DHT22;15976;47.938;7.758;2023-11-22T09:50:03;7.10;81.30
28845;DHT22;15976;47.938;7.758;2023-11-22T09:52:33;7.20;80.90
28845;DHT22;15976;47.938;7.758;2023-11-22T09:55:03;7.20;80.60
28845;DHT22;15976;47.938;7.758;2023-11-22T09:57:32;7.20;80.40
28845;DHT22;15976;47.938;7.758;2023-11-22T10:00:01;7.20;80.30
28845;DHT22;15976;47.938;7.758;2023-11-22T10:02:34;7.30;80.00
28845;DHT22;15976;47.938;7.758;2023-11-22T10:05:03;7.30;79.70
28845;DHT22;15976;47.938;7.758;2023-11-22T10:07:30;7.30;79.50
28845;DHT22;15976;47.938;7.758;2023-11-22T10:09:57;7.30;79.20
28845;DHT22;15976;47.938;7.758;2023-11-22T10:12:29;7.30;78.70
28845;DHT22;15976;47.938;7.758;2023-11-22T10:15:13;7.30;78.40
28845;DHT22;15976;47.938;7.758;2023-11-22T10:17:47;7.30;78.30
28845;DHT22;15976;47.938;7.758;2023-11-22T10:20:14;7.30;78.30
28845;DHT22;15976;47.938;7.758;2023-11-22T10:22:46;7.40;78.20
28845;DHT22;15976;47.938;7.758;2023-11-22T10:25:15;7.40;78.00
28845;DHT22;15976;47.938;7.758;2023-11-22T10:27:46;7.40;77.70
28845;DHT22;15976;47.938;7.758;2023-11-22T10:30:18;7.40;77.80
28845;DHT22;15976;47.938;7.758;2023-11-22T10:32:46;7.40;77.90
28845;DHT22;15976;47.938;7.758;2023-11-22T10:35:13;7.40;77.60
28845;DHT22;15976;47.938;7.758;2023-11-22T10:37:43;7.50;77.50
28845;DHT22;15976;47.938;7.758;2023-11-22T10:40:14;7.50;77.30
28845;DHT22;15976;47.938;7.758;2023-11-22T10:42:42;7.60;77.30
28845;DHT22;15976;47.938;7.758;2023-11-22T10:45:13;7.70;77.10
28845;DHT22;15976;47.938;7.758;2023-11-22T10:47:42;7.80;77.10
28845;DHT22;15976;47.938;7.758;2023-11-22T10:50:10;7.80;76.70
28845;DHT22;15976;47.938;7.758;2023-11-22T10:52:41;7.90;76.40
28845;DHT22;15976;47.938;7.758;2023-11-22T10:55:11;8.00;76.20
28845;DHT22;15976;47.938;7.758;2023-11-22T10:57:45;8.00;75.80
28845;DHT22;15976;47.938;7.758;2023-11-22T11:00:15;8.00;75.60
28845;DHT22;15976;47.938;7.758;2023-11-22T11:02:46;7.90;75.50
28845;DHT22;15976;47.938;7.758;2023-11-22T11:05:20;7.90;75.70
28845;DHT22;15976;47.938;7.758;2023-11-22T11:10:26;8.00;75.40
28845;DHT22;15976;47.938;7.758;2023-11-22T11:12:54;7.90;75.00
28845;DHT22;15976;47.938;7.758;2023-11-22T11:15:22;7.90;75.00
28845;DHT22;15976;47.938;7.758;2023-11-22T11:17:50;7.90;75.00
28845;DHT22;15976;47.938;7.758;2023-11-22T11:20:18;7.90;74.70
28845;DHT22;15976;47.938;7.758;2023-11-22T11:22:47;7.90;74.40
28845;DHT22;15976;47.938;7.758;2023-11-22T11:25:16;7.80;74.30
28845;DHT22;15976;47.938;7.758;2023-11-22T11:27:56;7.80;74.00
28845;DHT22;15976;47.938;7.758;2023-11-22T11:33:01;7.70;73.80
28845;DHT22;15976;47.938;7.758;2023-11-22T11:35:38;7.70;74.00
28845;DHT22;15976;47.938;7.758;2023-11-22T11:38:06;7.70;73.90
28845;DHT22;15976;47.938;7.758;2023-11-22T11:40:36;7.70;74.20
28845;DHT22;15976;47.938;7.758;2023-11-22T11:43:04;7.70;74.00
28845;DHT22;15976;47.938;7.758;2023-11-22T11:45:44;7.60;73.60
28845;DHT22;15976;47.938;7.758;2023-11-22T11:48:14;7.60;73.20
28845;DHT22;15976;47.938;7.758;2023-11-22T11:50:46;7.60;73.10
28845;DHT22;15976;47.938;7.758;2023-11-22T11:53:13;7.50;73.10
28845;DHT22;15976;47.938;7.758;2023-11-22T11:55:45;7.50;72.90
28845;DHT22;15976;47.938;7.758;2023-11-22T11:58:13;7.40;72.70
28845;DHT22;15976;47.938;7.758;2023-11-22T12:00:44;7.30;72.50
28845;DHT22;15976;47.938;7.758;2023-11-22T12:03:11;7.30;72.30
28845;DHT22;15976;47.938;7.758;2023-11-22T12:05:39;7.20;71.90
28845;DHT22;15976;47.938;7.758;2023-11-22T12:08:06;7.10;72.00
28845;DHT22;15976;47.938;7.758;2023-11-22T12:10:33;7.10;72.10
28845;DHT22;15976;47.938;7.758;2023-11-22T12:13:00;7.10;72.00
28845;DHT22;15976;47.938;7.758;2023-11-22T12:15:28;7.10;71.70
28845;DHT22;15976;47.938;7.758;2023-11-22T12:17:56;7.10;71.50
28845;DHT22;15976;47.938;7.758;2023-11-22T12:20:25;7.10;71.40
28845;DHT22;15976;47.938;7.758;2023-11-22T12:22:53;7.10;71.30
28845;DHT22;15976;47.938;7.758;2023-11-22T12:25:20;7.00;71.00
28845;DHT22;15976;47.938;7.758;2023-11-22T12:27:48;7.00;71.10
28845;DHT22;15976;47.938;7.758;2023-11-22T12:30:35;7.00;71.00
28845;DHT22;15976;47.938;7.758;2023-11-22T12:33:06;7.00;70.90
28845;DHT22;15976;47.938;7.758;2023-11-22T12:35:36;6.90;71.00
28845;DHT22;15976;47.938;7.758;2023-11-22T12:38:05;7.00;71.20
28845;DHT22;15976;47.938;7.758;2023-11-22T12:40:33;7.00;70.90
28845;DHT22;15976;47.938;7.758;2023-11-22T12:43:00;6.90;70.80
28845;DHT22;15976;47.938;7.758;2023-11-22T12:45:28;6.90;70.80
28845;DHT22;15976;47.938;7.758;2023-11-22T12:47:56;7.00;70.70
28845;DHT22;15976;47.938;7.758;2023-11-22T12:50:36;7.00;70.40
28845;DHT22;15976;47.938;7.758;2023-11-22T12:53:14;7.00;70.30
28845;DHT22;15976;47.938;7.758;2023-11-22T12:55:45;7.00;69.90
28845;DHT22;15976;47.938;7.758;2023-11-22T12:58:14;6.90;69.40
28845;DHT22;15976;47.938;7.758;2023-11-22T13:00:42;6.80;69.20
28845;DHT22;15976;47.938;7.758;2023-11-22T13:03:09;6.80;69.30
28845;DHT22;15976;47.938;7.758;2023-11-22T13:05:42;6.80;69.40
28845;DHT22;15976;47.938;7.758;2023-11-22T13:08:13;6.80;69.40
28845;DHT22;15976;47.938;7.758;2023-11-22T13:10:43;6.70;69.30
28845;DHT22;15976;47.938;7.758;2023-11-22T13:13:11;6.70;69.60
28845;DHT22;15976;47.938;7.758;2023-11-22T13:15:38;6.70;69.90
28845;DHT22;15976;47.938;7.758;2023-11-22T13:18:07;6.80;69.90
28845;DHT22;15976;47.938;7.758;2023-11-22T13:20:35;6.80;69.90
28845;DHT22;15976;47.938;7.758;2023-11-22T13:23:02;6.80;70.00
28845;DHT22;15976;47.938;7.758;2023-11-22T13:25:29;6.80;69.70
28845;DHT22;15976;47.938;7.758;2023-11-22T13:27:57;6.80;69.70
28845;DHT22;15976;47.938;7.758;2023-11-22T13:30:26;6.80;69.80
28845;DHT22;15976;47.938;7.758;2023-11-22T13:32:53;6.80;69.50
28845;DHT22;15976;47.938;7.758;2023-11-22T13:35:28;6.70;69.30
28845;DHT22;15976;47.938;7.758;2023-11-22T13:37:59;6.70;69.40
28845;DHT22;15976;47.938;7.758;2023-11-22T13:40:28;6.70;69.40
28845;DHT22;15976;47.938;7.758;2023-11-22T13:42:58;6.60;69.30
28845;DHT22;15976;47.938;7.758;2023-11-22T13:45:25;6.70;69.60
28845;DHT22;15976;47.938;7.758;2023-11-22T13:47:53;6.60;69.60
28845;DHT22;15976;47.938;7.758;2023-11-22T13:50:24;6.70;69.80
28845;DHT22;15976;47.938;7.758;2023-11-22T13:52:54;6.70;69.70
28845;DHT22;15976;47.938;7.758;2023-11-22T13:55:22;6.80;69.70
28845;DHT22;15976;47.938;7.758;2023-11-22T13:57:53;6.80;69.70
28845;DHT22;15976;47.938;7.758;2023-11-22T14:00:22;6.80;69.60
28845;DHT22;15976;47.938;7.758;2023-11-22T14:02:53;6.80;69.50
28845;DHT22;15976;47.938;7.758;2023-11-22T14:05:25;6.80;69.50
28845;DHT22;15976;47.938;7.758;2023-11-22T14:07:53;6.70;69.40
28845;DHT22;15976;47.938;7.758;2023-11-22T14:10:21;6.70;69.40
28845;DHT22;15976;47.938;7.758;2023-11-22T14:12:50;6.80;69.60
28845;DHT22;15976;47.938;7.758;2023-11-22T14:15:17;6.80;69.60
28845;DHT22;15976;47.938;7.758;2023-11-22T14:17:45;6.80;70.30
28845;DHT22;15976;47.938;7.758;2023-11-22T14:20:16;6.80;69.20
28845;DHT22;15976;47.938;7.758;2023-11-22T14:22:43;6.80;69.10
28845;DHT22;15976;47.938;7.758;2023-11-22T14:25:11;6.80;69.00
28845;DHT22;15976;47.938;7.758;2023-11-22T14:27:39;6.80;69.10
28845;DHT22;15976;47.938;7.758;2023-11-22T14:30:07;6.80;69.10
28845;DHT22;15976;47.938;7.758;2023-11-22T14:32:44;6.80;69.00
28845;DHT22;15976;47.938;7.758;2023-11-22T14:35:35;6.80;69.00
28845;DHT22;15976;47.938;7.758;2023-11-22T14:38:02;6.90;69.10
28845;DHT22;15976;47.938;7.758;2023-11-22T14:40:32;6.80;69.00
28845;DHT22;15976;47.938;7.758;2023-11-22T14:43:01;6.80;69.00
28845;DHT22;15976;47.938;7.758;2023-11-22T14:45:30;6.80;68.80
28845;DHT22;15976;47.938;7.758;2023-11-22T14:48:01;6.70;68.60
28845;DHT22;15976;47.938;7.758;2023-11-22T14:50:29;6.70;68.70
28845;DHT22;15976;47.938;7.758;2023-11-22T14:52:58;6.70;68.50
28845;DHT22;15976;47.938;7.758;2023-11-22T14:55:25;6.70;69.50
28845;DHT22;15976;47.938;7.758;2023-11-22T14:57:53;6.70;68.90
28845;DHT22;15976;47.938;7.758;2023-11-22T15:00:23;6.70;68.90
28845;DHT22;15976;47.938;7.758;2023-11-22T15:02:50;6.60;68.90
28845;DHT22;15976;47.938;7.758;2023-11-22T15:05:21;6.60;69.10
28845;DHT22;15976;47.938;7.758;2023-11-22T15:07:49;6.70;69.20
28845;DHT22;15976;47.938;7.758;2023-11-22T15:10:22;6.70;69.40
28845;DHT22;15976;47.938;7.758;2023-11-22T15:12:50;6.70;69.60
28845;DHT22;15976;47.938;7.758;2023-11-22T15:15:17;6.70;69.50
28845;DHT22;15976;47.938;7.758;2023-11-22T15:17:45;6.70;69.60
28845;DHT22;15976;47.938;7.758;2023-11-22T15:20:13;6.70;69.60
28845;DHT22;15976;47.938;7.758;2023-11-22T15:22:43;6.70;69.60
28845;DHT22;15976;47.938;7.758;2023-11-22T15:25:10;6.70;69.70
28845;DHT22;15976;47.938;7.758;2023-11-22T15:27:37;6.70;69.80
28845;DHT22;15976;47.938;7.758;2023-11-22T15:30:05;6.70;69.90
28845;DHT22;15976;47.938;7.758;2023-11-22T15:32:34;6.70;69.90
28845;DHT22;15976;47.938;7.758;2023-11-22T15:35:01;6.70;70.00
28845;DHT22;15976;47.938;7.758;2023-11-22T15:37:31;6.70;70.00
28845;DHT22;15976;47.938;7.758;2023-11-22T15:39:58;6.60;69.90
28845;DHT22;15976;47.938;7.758;2023-11-22T15:42:27;6.60;70.10
28845;DHT22;15976;47.938;7.758;2023-11-22T15:44:54;6.60;70.20
28845;DHT22;15976;47.938;7.758;2023-11-22T15:47:21;6.60;70.30
28845;DHT22;15976;47.938;7.758;2023-11-22T15:49:49;6.60;70.40
28845;DHT22;15976;47.938;7.758;2023-11-22T15:52:15;6.60;70.50
28845;DHT22;15976;47.938;7.758;2023-11-22T15:54:42;6.60;70.50
28845;DHT22;15976;47.938;7.758;2023-11-22T15:57:09;6.60;70.50
28845;DHT22;15976;47.938;7.758;2023-11-22T15:59:36;6.50;70.50